Time;durP1;ratioP1;P1;durP2;ratioP2;P2;SDS_P1;SDS_P2;PMS_P1;PMS_P2;Temp;Humidity;BMP_temperature;BMP_pressure;BME280_temperature;BME280_humidity;BME280_pressure;Samples;Min_cycle;Max_cycle;Signal;HPM_P1;HPM_P2
2022/10/14 00:01:05;;;;;;;25.63;13.30;;;11.40;99.90;;;;;;5042486;28;20140;-84
2022/10/14 00:03:32;;;;;;;23.65;12.43;;;11.30;99.90;;;;;;5041825;28;20121;-84
2022/10/14 00:05:57;;;;;;;26.77;13.35;;;11.20;99.90;;;;;;5030330;28;20056;-84
2022/10/14 00:08:24;;;;;;;26.60;12.63;;;11.10;99.90;;;;;;5019525;28;20041;-84
2022/10/14 00:10:50;;;;;;;25.15;13.02;;;11.10;99.90;;;;;;5045029;28;20121;-84
2022/10/14 00:13:16;;;;;;;28.60;13.13;;;11.10;99.90;;;;;;5042936;28;20136;-84
2022/10/14 00:15:42;;;;;;;28.45;13.35;;;11.10;99.90;;;;;;5030686;28;20536;-84
2022/10/14 00:18:08;;;;;;;24.02;12.50;;;11.10;99.90;;;;;;5044841;28;20068;-84
2022/10/14 00:20:34;;;;;;;30.05;13.32;;;11.20;99.90;;;;;;5029061;28;20041;-84
2022/10/14 00:23:01;;;;;;;37.20;13.75;;;11.20;99.90;;;;;;5052038;28;20045;-85
2022/10/14 00:25:27;;;;;;;32.08;13.35;;;11.20;99.90;;;;;;5041288;28;20141;-84
2022/10/14 00:27:53;;;;;;;55.03;14.80;;;11.20;99.90;;;;;;5047880;28;20041;-84
2022/10/14 00:30:19;;;;;;;111.50;18.45;;;11.20;99.90;;;;;;5023738;28;20126;-84
2022/10/14 00:32:45;;;;;;;33.85;12.38;;;11.30;99.90;;;;;;5058018;28;20046;-84
2022/10/14 00:35:11;;;;;;;80.00;15.95;;;11.30;99.90;;;;;;5041771;28;20041;-85
2022/10/14 00:37:38;;;;;;;90.88;13.93;;;11.30;99.90;;;;;;5046131;28;20033;-85
2022/10/14 00:40:05;;;;;;;59.78;13.40;;;11.40;99.90;;;;;;5027993;28;20045;-84
2022/10/14 00:42:34;;;;;;;73.95;16.00;;;11.40;99.90;;;;;;5034244;28;20056;-85
2022/10/14 00:45:09;;;;;;;110.88;18.15;;;11.40;99.90;;;;;;5048724;28;20124;-85
2022/10/14 00:47:35;;;;;;;49.63;13.25;;;11.40;99.90;;;;;;5026947;28;20064;-85
2022/10/14 00:50:01;;;;;;;59.83;14.05;;;11.40;99.90;;;;;;5029852;28;20049;-85
2022/10/14 00:52:27;;;;;;;79.68;15.45;;;11.40;99.90;;;;;;5060136;28;20042;-84
2022/10/14 00:54:57;;;;;;;32.70;11.52;;;11.40;99.90;;;;;;5027390;28;20037;-85
2022/10/14 00:57:24;;;;;;;88.00;15.57;;;11.40;99.90;;;;;;5032490;28;20417;-85
2022/10/14 00:59:52;;;;;;;149.82;22.77;;;11.40;99.90;;;;;;5048993;28;20071;-85
2022/10/14 01:02:18;;;;;;;61.83;12.35;;;11.40;99.90;;;;;;5041186;28;20055;-85
2022/10/14 01:04:44;;;;;;;40.28;11.48;;;11.40;99.90;;;;;;5048960;28;20041;-85
2022/10/14 01:07:30;;;;;;;59.58;13.77;;;11.40;99.90;;;;;;5029695;28;20593;-85
2022/10/14 01:10:27;;;;;;;51.75;13.75;;;11.30;99.90;;;;;;5034955;28;20589;-85
2022/10/14 01:13:00;;;;;;;115.93;16.08;;;11.30;99.90;;;;;;5042933;28;20064;-85
2022/10/14 01:15:34;;;;;;;226.23;23.50;;;11.30;99.90;;;;;;5041105;28;20049;-85
2022/10/14 01:18:37;;;;;;;95.47;15.18;;;11.30;99.90;;;;;;5057440;28;20060;-84
2022/10/14 01:21:13;;;;;;;134.13;18.58;;;11.30;99.90;;;;;;5042446;28;20049;-85
2022/10/14 01:24:16;;;;;;;71.22;14.40;;;11.20;99.90;;;;;;5029998;28;20107;-85
2022/10/14 01:26:55;;;;;;;;;;;11.30;99.90;;;;;;5039691;28;20041;-85
2022/10/14 01:29:49;;;;;;;131.85;16.60;;;11.30;99.90;;;;;;5040177;28;19920;-85
2022/10/14 01:32:32;;;;;;;97.78;16.50;;;11.30;99.90;;;;;;5057172;28;20049;-84
2022/10/14 01:35:00;;;;;;;87.68;14.45;;;11.30;99.90;;;;;;5038222;28;20067;-84
2022/10/14 01:37:28;;;;;;;123.53;18.05;;;11.30;99.90;;;;;;5045872;28;20099;-85
2022/10/14 01:40:04;;;;;;;50.78;13.82;;;11.30;99.90;;;;;;5044180;28;20047;-85
2022/10/14 01:42:33;;;;;;;45.78;13.85;;;11.30;99.90;;;;;;5043564;28;20120;-84
2022/10/14 01:45:10;;;;;;;310.40;29.50;;;11.30;99.90;;;;;;5049802;28;20045;-85
2022/10/14 01:47:38;;;;;;;251.43;27.27;;;11.40;99.90;;;;;;5056348;28;20091;-84
2022/10/14 01:50:11;;;;;;;65.45;14.98;;;11.30;99.90;;;;;;5038999;28;20493;-85
2022/10/14 01:52:44;;;;;;;258.63;27.75;;;11.40;99.90;;;;;;5058424;28;20073;-84
2022/10/14 01:55:17;;;;;;;79.40;16.63;;;11.30;99.90;;;;;;5044668;28;20068;-84
2022/10/14 01:57:44;;;;;;;98.57;17.42;;;11.40;99.90;;;;;;5034952;28;20076;-85
2022/10/14 02:00:10;;;;;;;215.55;24.77;;;11.40;99.90;;;;;;5029734;28;20046;-85
2022/10/14 02:02:37;;;;;;;343.65;31.58;;;11.30;99.90;;;;;;5021257;28;20083;-85
2022/10/14 02:05:13;;;;;;;88.68;16.13;;;11.30;99.90;;;;;;5045443;28;20041;-85
2022/10/14 02:07:50;;;;;;;271.10;28.30;;;11.30;99.90;;;;;;5039411;28;20446;-85
2022/10/14 02:10:38;;;;;;;81.75;16.08;;;11.30;99.90;;;;;;5047584;28;20113;-85
2022/10/14 02:13:32;;;;;;;53.80;15.07;;;11.30;99.90;;;;;;5022926;28;20745;-85
2022/10/14 02:16:15;;;;;;;74.68;17.08;;;11.30;99.90;;;;;;5031620;28;20149;-85
2022/10/14 02:18:52;;;;;;;58.10;16.02;;;11.30;99.90;;;;;;5035673;28;20101;-85
2022/10/14 02:21:38;;;;;;;134.52;19.67;;;11.40;99.90;;;;;;5054911;28;20030;-85
2022/10/14 02:24:32;;;;;;;133.10;22.65;;;11.40;99.90;;;;;;5044792;28;20105;-85
2022/10/14 02:27:03;;;;;;;105.65;20.02;;;11.40;99.90;;;;;;5036232;28;20068;-85
2022/10/14 02:29:30;;;;;;;154.70;24.92;;;11.40;99.90;;;;;;5053077;28;20042;-85
2022/10/14 02:31:58;;;;;;;77.05;19.10;;;11.30;99.90;;;;;;5048056;28;20042;-85
2022/10/14 02:34:24;;;;;;;89.00;20.60;;;11.40;99.90;;;;;;5043846;28;20042;-85
2022/10/14 02:36:52;;;;;;;70.78;19.02;;;11.40;99.90;;;;;;5041043;28;20045;-85
2022/10/14 02:39:27;;;;;;;118.78;23.05;;;11.40;99.90;;;;;;5048708;28;20098;-85
2022/10/14 02:41:53;;;;;;;129.85;24.02;;;11.40;99.90;;;;;;5028633;28;20046;-84
2022/10/14 02:44:19;;;;;;;84.80;16.55;;;11.40;99.90;;;;;;5058910;28;20049;-85
2022/10/14 02:46:45;;;;;;;100.47;18.25;;;11.40;99.90;;;;;;5047427;28;20589;-85
2022/10/14 02:49:10;;;;;;;59.35;15.70;;;11.30;99.90;;;;;;5031171;28;20091;-85
2022/10/14 02:51:36;;;;;;;84.43;18.48;;;11.30;99.90;;;;;;5013696;28;20045;-85
2022/10/14 02:54:02;;;;;;;71.50;16.30;;;11.30;99.90;;;;;;5051404;28;20060;-86
2022/10/14 02:56:28;;;;;;;90.78;16.33;;;11.30;99.90;;;;;;5043738;28;20140;-85
2022/10/14 02:58:53;;;;;;;75.05;15.30;;;11.20;99.90;;;;;;5041834;28;20076;-85
2022/10/14 03:01:19;;;;;;;63.00;13.68;;;11.20;99.90;;;;;;5042153;28;20041;-84
2022/10/14 03:03:45;;;;;;;75.05;16.55;;;11.20;99.90;;;;;;5033341;28;20045;-85
2022/10/14 03:06:10;;;;;;;96.78;16.67;;;11.20;99.90;;;;;;5051098;28;20048;-85
2022/10/14 03:08:36;;;;;;;80.60;14.15;;;11.20;99.90;;;;;;5034837;28;20051;-85
2022/10/14 03:11:02;;;;;;;96.05;18.48;;;11.20;99.90;;;;;;5023710;28;20427;-85
2022/10/14 03:13:27;;;;;;;100.32;18.10;;;11.20;99.90;;;;;;5042764;28;20052;-85
2022/10/14 03:15:53;;;;;;;111.47;20.02;;;11.20;99.90;;;;;;5029039;28;20072;-85
2022/10/14 03:18:20;;;;;;;77.55;17.48;;;11.20;99.90;;;;;;5029413;28;20037;-85
2022/10/14 03:20:46;;;;;;;113.35;19.50;;;11.20;99.90;;;;;;5049776;28;20057;-84
2022/10/14 03:23:13;;;;;;;91.90;18.92;;;11.20;99.90;;;;;;5027529;28;20034;-84
2022/10/14 03:25:39;;;;;;;145.52;24.15;;;11.20;99.90;;;;;;5041758;28;20240;-85
2022/10/14 03:28:05;;;;;;;125.68;20.92;;;11.20;99.90;;;;;;5065346;28;20068;-85
2022/10/14 03:30:31;;;;;;;112.20;21.25;;;11.20;99.90;;;;;;5056095;28;20042;-85
2022/10/14 03:32:57;;;;;;;80.45;17.95;;;11.20;99.90;;;;;;5009165;28;20124;-85
2022/10/14 03:35:23;;;;;;;111.65;20.60;;;11.20;99.90;;;;;;5028188;28;20052;-86
2022/10/14 03:37:48;;;;;;;68.25;16.15;;;11.20;99.90;;;;;;5020960;28;20034;-86
2022/10/14 03:40:14;;;;;;;75.00;17.67;;;11.20;99.90;;;;;;5041302;28;20118;-85
2022/10/14 03:42:41;;;;;;;97.75;17.58;;;11.10;99.90;;;;;;5046223;28;20045;-85
2022/10/14 03:45:07;;;;;;;86.93;17.48;;;11.10;99.90;;;;;;5027377;28;20083;-86
2022/10/14 03:47:33;;;;;;;63.65;16.13;;;11.10;99.90;;;;;;5021156;28;20041;-86
2022/10/14 03:49:59;;;;;;;70.22;16.13;;;11.10;99.90;;;;;;5030737;28;20072;-86
2022/10/14 03:52:25;;;;;;;92.22;16.30;;;11.10;99.90;;;;;;5044778;28;20081;-85
2022/10/14 03:54:51;;;;;;;39.67;12.48;;;11.10;99.90;;;;;;5023105;28;20052;-84
2022/10/14 03:57:16;;;;;;;46.92;13.32;;;11.00;99.90;;;;;;5049336;28;20033;-85
2022/10/14 03:59:42;;;;;;;64.13;13.40;;;11.00;99.90;;;;;;5027904;28;20622;-85
2022/10/14 04:02:07;;;;;;;50.13;13.57;;;11.00;99.90;;;;;;5024538;28;20516;-84
2022/10/14 04:04:33;;;;;;;86.22;16.98;;;10.90;99.90;;;;;;5041849;28;20148;-84
2022/10/14 04:06:59;;;;;;;75.40;15.95;;;11.00;99.90;;;;;;5045450;28;20053;-84
2022/10/14 04:09:26;;;;;;;121.10;17.27;;;10.90;99.90;;;;;;5018217;28;20049;-85
2022/10/14 04:11:52;;;;;;;68.97;15.95;;;10.90;99.90;;;;;;5040898;28;20143;-85
2022/10/14 04:14:17;;;;;;;107.85;17.83;;;10.90;99.90;;;;;;5051363;28;20579;-84
2022/10/14 04:16:43;;;;;;;46.20;13.65;;;10.90;99.90;;;;;;5028940;28;20045;-85
2022/10/14 04:19:09;;;;;;;60.38;14.05;;;10.90;99.90;;;;;;5028893;28;20045;-85
2022/10/14 04:21:34;;;;;;;64.78;15.45;;;10.90;99.90;;;;;;5029785;28;20079;-85
2022/10/14 04:24:00;;;;;;;72.25;16.15;;;10.90;99.90;;;;;;5046608;28;20077;-85
2022/10/14 04:26:26;;;;;;;51.83;14.95;;;10.90;99.90;;;;;;5045425;28;20041;-85
2022/10/14 04:28:51;;;;;;;69.40;16.02;;;10.90;99.90;;;;;;5028236;28;20037;-84
2022/10/14 04:31:17;;;;;;;61.65;15.00;;;10.90;99.90;;;;;;5017278;28;20042;-84
2022/10/14 04:33:43;;;;;;;63.42;14.80;;;10.80;99.90;;;;;;5031971;28;20052;-85
2022/10/14 04:36:08;;;;;;;41.63;12.55;;;10.80;99.90;;;;;;5048281;28;20104;-85
2022/10/14 04:38:34;;;;;;;41.72;12.52;;;10.80;99.90;;;;;;5028014;28;20732;-85
2022/10/14 04:41:00;;;;;;;53.40;13.57;;;10.80;99.90;;;;;;5027847;28;20072;-85
2022/10/14 04:43:25;;;;;;;56.67;15.70;;;10.80;99.90;;;;;;5049253;28;20037;-85
2022/10/14 04:45:53;;;;;;;39.78;14.00;;;10.70;99.90;;;;;;5045154;28;20068;-85
2022/10/14 04:48:19;;;;;;;34.88;12.02;;;10.70;99.90;;;;;;5028691;28;20100;-86
2022/10/14 04:50:44;;;;;;;79.65;18.00;;;10.70;99.90;;;;;;5041031;28;20053;-86
2022/10/14 04:53:10;;;;;;;42.63;14.25;;;10.70;99.90;;;;;;5040757;28;20038;-85
2022/10/14 04:55:36;;;;;;;44.83;14.13;;;10.70;99.90;;;;;;5043268;28;20047;-86
2022/10/14 04:58:02;;;;;;;38.25;14.00;;;10.70;99.90;;;;;;5041993;28;20042;-84
2022/10/14 05:00:28;;;;;;;88.95;18.23;;;10.70;99.90;;;;;;5031795;28;21002;-84
2022/10/14 05:02:53;;;;;;;69.28;16.25;;;10.70;99.90;;;;;;5022983;28;20042;-85
2022/10/14 05:05:19;;;;;;;108.80;19.27;;;10.70;99.90;;;;;;5040960;28;20041;-85
2022/10/14 05:07:45;;;;;;;112.28;19.85;;;10.80;99.90;;;;;;5043965;28;20049;-85
2022/10/14 05:10:10;;;;;;;43.75;14.73;;;10.70;99.90;;;;;;5029509;28;20049;-85
2022/10/14 05:12:38;;;;;;;54.80;16.33;;;10.80;99.90;;;;;;5044325;28;20087;-85
2022/10/14 05:15:04;;;;;;;119.60;22.35;;;10.70;99.90;;;;;;5027574;28;20038;-85
2022/10/14 05:17:31;;;;;;;90.95;18.55;;;10.80;99.90;;;;;;5020711;28;20098;-85
2022/10/14 05:19:57;;;;;;;168.20;24.35;;;10.80;99.90;;;;;;5031406;28;20041;-85
2022/10/14 05:22:24;;;;;;;60.08;17.40;;;10.80;99.90;;;;;;5057973;28;20140;-85
2022/10/14 05:24:49;;;;;;;104.78;18.10;;;10.80;99.90;;;;;;5042680;28;20052;-86
2022/10/14 05:27:16;;;;;;;94.38;16.67;;;10.80;99.90;;;;;;5048433;28;20041;-85
2022/10/14 05:29:41;;;;;;;116.97;18.63;;;10.80;99.90;;;;;;5030766;28;20041;-86
2022/10/14 05:32:07;;;;;;;123.47;19.63;;;10.90;99.90;;;;;;5038726;28;20052;-87
2022/10/14 05:34:33;;;;;;;54.67;15.63;;;10.90;99.90;;;;;;5037572;28;20065;-86
2022/10/14 05:36:59;;;;;;;68.07;17.20;;;11.00;99.90;;;;;;5047392;28;20057;-86
2022/10/14 05:39:25;;;;;;;64.55;16.70;;;10.90;99.90;;;;;;5029918;28;20043;-85
2022/10/14 05:41:53;;;;;;;73.00;17.08;;;10.90;99.90;;;;;;5040921;28;20053;-86
2022/10/14 05:44:19;;;;;;;102.43;19.85;;;10.90;99.90;;;;;;5047349;28;20498;-86
2022/10/14 05:46:45;;;;;;;129.98;20.58;;;10.90;99.90;;;;;;5031256;28;20548;-87
2022/10/14 05:49:11;;;;;;;116.68;20.60;;;10.90;99.90;;;;;;5012399;28;20060;-88
2022/10/14 05:51:36;;;;;;;111.10;19.70;;;10.90;99.90;;;;;;5030502;28;20059;-89
2022/10/14 05:54:03;;;;;;;115.13;21.52;;;10.90;99.90;;;;;;5029162;28;20064;-86
2022/10/14 05:56:28;;;;;;;94.90;18.60;;;11.00;99.90;;;;;;5039144;28;20087;-86
2022/10/14 05:58:54;;;;;;;104.45;18.77;;;10.90;99.90;;;;;;5024704;28;20041;-87
2022/10/14 06:01:20;;;;;;;75.15;18.35;;;11.00;99.90;;;;;;5030728;28;20587;-89
2022/10/14 06:03:49;;;;;;;78.65;17.88;;;11.00;99.90;;;;;;5037380;28;20053;-89
2022/10/14 06:06:15;;;;;;;76.88;17.85;;;11.00;99.90;;;;;;5039929;28;20050;-90
2022/10/14 06:08:41;;;;;;;80.53;18.50;;;11.00;99.90;;;;;;5006074;28;20049;-88
2022/10/14 06:11:07;;;;;;;60.28;16.88;;;11.00;99.90;;;;;;5025191;28;20108;-85
2022/10/14 06:13:34;;;;;;;64.63;15.90;;;11.00;99.90;;;;;;5029403;28;20057;-86
2022/10/14 06:16:08;;;;;;;66.32;15.70;;;10.90;99.90;;;;;;5038169;28;20041;-87
2022/10/14 06:18:34;;;;;;;51.30;14.52;;;11.00;99.90;;;;;;5040312;28;20064;-86
2022/10/14 06:21:01;;;;;;;58.13;15.73;;;11.00;99.90;;;;;;5042780;28;20640;-86
2022/10/14 06:23:27;;;;;;;52.55;13.90;;;11.00;99.90;;;;;;5040881;28;20420;-87
2022/10/14 06:25:53;;;;;;;64.72;16.23;;;11.00;99.90;;;;;;5045696;28;20041;-87
2022/10/14 06:28:19;;;;;;;57.63;14.38;;;11.00;99.90;;;;;;5038452;28;21015;-87
2022/10/14 06:30:54;;;;;;;52.45;14.82;;;11.00;99.90;;;;;;5023132;28;20057;-88
2022/10/14 06:33:21;;;;;;;71.72;16.40;;;11.00;99.90;;;;;;5031358;28;20055;-86
2022/10/14 06:35:47;;;;;;;65.55;15.13;;;11.00;99.90;;;;;;5042109;28;20071;-88
2022/10/14 06:38:13;;;;;;;47.92;13.15;;;11.10;99.90;;;;;;5012027;28;20040;-88
2022/10/14 06:40:39;;;;;;;42.83;13.82;;;11.20;99.90;;;;;;5017344;28;20093;-87
2022/10/14 06:43:04;;;;;;;52.05;14.43;;;11.10;99.90;;;;;;5041600;28;20041;-87
2022/10/14 06:45:30;;;;;;;41.35;14.25;;;11.20;99.90;;;;;;5026044;28;20034;-87
2022/10/14 06:47:56;;;;;;;53.85;14.93;;;11.30;99.90;;;;;;5009815;28;20057;-87
2022/10/14 06:50:22;;;;;;;50.40;15.43;;;11.30;99.90;;;;;;5014166;28;20477;-86
2022/10/14 06:52:48;;;;;;;34.63;13.30;;;11.30;99.90;;;;;;5028399;28;20040;-87
2022/10/14 06:55:14;;;;;;;39.97;13.82;;;11.30;99.90;;;;;;5029292;28;20049;-87
2022/10/14 06:57:40;;;;;;;38.55;14.13;;;11.30;99.90;;;;;;5031274;28;20041;-84
2022/10/14 07:00:06;;;;;;;40.20;14.63;;;11.30;99.90;;;;;;5014051;28;20050;-83
2022/10/14 07:02:32;;;;;;;38.10;14.00;;;11.40;99.90;;;;;;5049100;28;20079;-83
2022/10/14 07:04:58;;;;;;;34.15;14.98;;;11.40;99.90;;;;;;5026369;28;20049;-84
2022/10/14 07:07:24;;;;;;;38.17;14.45;;;11.40;99.90;;;;;;5055610;28;20038;-84
2022/10/14 07:09:50;;;;;;;58.88;15.82;;;11.40;99.90;;;;;;5047155;28;20061;-84
2022/10/14 07:12:15;;;;;;;40.05;13.65;;;11.40;99.90;;;;;;5042905;28;20045;-84
2022/10/14 07:14:41;;;;;;;42.78;15.90;;;11.40;99.90;;;;;;5050195;28;20051;-85
2022/10/14 07:17:07;;;;;;;37.47;14.32;;;11.50;99.90;;;;;;5036789;28;20059;-84
2022/10/14 07:19:33;;;;;;;35.10;13.13;;;11.40;99.90;;;;;;5019633;28;20042;-85
2022/10/14 07:21:59;;;;;;;35.03;13.85;;;11.50;99.90;;;;;;5041700;28;20084;-85
2022/10/14 07:24:25;;;;;;;36.72;13.65;;;11.50;99.90;;;;;;5047035;28;20052;-85
2022/10/14 07:26:51;;;;;;;43.78;14.00;;;11.50;99.90;;;;;;5047522;28;20045;-85
2022/10/14 07:29:17;;;;;;;35.60;13.95;;;11.50;99.90;;;;;;5031719;28;20064;-84
2022/10/14 07:31:43;;;;;;;50.08;14.68;;;11.60;99.90;;;;;;5047984;28;20041;-85
2022/10/14 07:34:09;;;;;;;42.28;15.38;;;11.50;99.90;;;;;;5030220;28;20531;-84
2022/10/14 07:36:35;;;;;;;39.38;14.07;;;11.60;99.90;;;;;;5045319;28;20072;-85
2022/10/14 07:39:00;;;;;;;37.60;14.50;;;11.60;99.90;;;;;;5061483;28;20073;-83
2022/10/14 07:41:27;;;;;;;39.88;14.38;;;11.60;99.90;;;;;;5049262;28;20081;-84
2022/10/14 07:44:01;;;;;;;40.53;13.52;;;11.60;99.90;;;;;;5016042;28;20045;-84
2022/10/14 07:46:30;;;;;;;41.78;14.50;;;11.60;99.90;;;;;;5044579;28;20050;-84
2022/10/14 07:48:59;;;;;;;46.42;16.23;;;11.70;99.90;;;;;;5043039;28;20050;-84
2022/10/14 07:51:26;;;;;;;42.65;15.40;;;11.70;99.90;;;;;;5048105;28;20041;-84
2022/10/14 07:53:56;;;;;;;44.03;16.40;;;11.70;99.90;;;;;;5045833;28;20029;-83
2022/10/14 07:56:28;;;;;;;42.65;15.63;;;11.80;99.90;;;;;;5039556;28;20063;-84
2022/10/14 07:58:55;;;;;;;43.85;16.92;;;11.80;99.90;;;;;;5045682;28;20045;-84
2022/10/14 08:01:23;;;;;;;47.83;17.02;;;11.80;99.90;;;;;;5065002;28;20480;-85
2022/10/14 08:03:48;;;;;;;50.40;16.33;;;11.90;99.90;;;;;;5048932;28;20072;-84
2022/10/14 08:06:14;;;;;;;44.50;17.17;;;11.90;99.90;;;;;;5029709;28;20076;-85
2022/10/14 08:08:41;;;;;;;44.17;17.42;;;11.90;99.90;;;;;;5043092;28;20037;-84
2022/10/14 08:11:16;;;;;;;41.40;16.48;;;11.90;99.90;;;;;;5040501;28;20079;-85
2022/10/14 08:13:42;;;;;;;40.78;16.38;;;11.90;99.90;;;;;;5041073;28;20091;-86
2022/10/14 08:16:29;;;;;;;44.78;16.35;;;12.00;99.90;;;;;;5032282;28;20049;-85
2022/10/14 08:19:01;;;;;;;65.60;19.65;;;12.00;99.90;;;;;;5046162;28;20073;-85
2022/10/14 08:21:27;;;;;;;50.08;16.52;;;12.00;99.90;;;;;;5042474;28;20133;-85
2022/10/14 08:23:53;;;;;;;46.35;17.10;;;12.00;99.90;;;;;;5033558;28;20618;-85
2022/10/14 08:26:26;;;;;;;89.60;42.10;;;12.10;99.90;;;;;;5042910;28;20057;-85
2022/10/14 08:28:52;;;;;;;59.05;20.15;;;12.00;99.90;;;;;;5039271;28;20041;-85
2022/10/14 08:31:19;;;;;;;53.85;18.83;;;12.10;99.90;;;;;;5045203;28;20044;-85
2022/10/14 08:33:44;;;;;;;50.95;18.38;;;12.10;99.90;;;;;;5028722;28;20045;-85
2022/10/14 08:36:10;;;;;;;50.30;18.65;;;12.00;99.90;;;;;;5041329;28;20066;-85
2022/10/14 08:38:36;;;;;;;67.78;21.05;;;12.10;99.90;;;;;;5065342;28;20094;-85
2022/10/14 08:41:11;;;;;;;65.35;20.23;;;12.10;99.90;;;;;;5051062;28;20139;-84
2022/10/14 08:43:53;;;;;;;57.10;19.27;;;12.20;99.90;;;;;;5028628;28;20060;-85
2022/10/14 08:46:37;;;;;;;52.92;19.15;;;12.20;99.90;;;;;;5047084;28;20130;-85
2022/10/14 08:49:28;;;;;;;51.97;17.95;;;12.20;99.90;;;;;;5046395;28;20057;-84
2022/10/14 08:52:06;;;;;;;50.50;19.10;;;12.20;99.90;;;;;;5033160;28;20103;-84
2022/10/14 08:54:39;;;;;;;58.30;20.20;;;12.30;99.90;;;;;;5042052;28;20186;-84
2022/10/14 08:57:15;;;;;;;54.70;17.77;;;12.30;99.90;;;;;;5043998;28;20049;-85
2022/10/14 08:59:41;;;;;;;50.60;19.48;;;12.30;99.90;;;;;;5036946;28;20088;-85
2022/10/14 09:02:26;;;;;;;58.30;20.02;;;12.30;99.90;;;;;;5022487;28;20029;-84
2022/10/14 09:04:51;;;;;;;61.63;19.65;;;12.40;99.90;;;;;;5040226;28;20128;-84
2022/10/14 09:07:19;;;;;;;54.38;18.58;;;12.40;99.90;;;;;;5040655;28;20053;-85
2022/10/14 09:09:49;;;;;;;53.22;18.15;;;12.40;99.90;;;;;;5039632;28;20992;-84
2022/10/14 09:12:27;;;;;;;71.32;19.58;;;12.50;99.90;;;;;;5050603;28;20451;-84
2022/10/14 09:15:21;;;;;;;57.72;18.73;;;12.50;99.90;;;;;;5031079;28;20053;-84
2022/10/14 09:18:15;;;;;;;58.03;17.13;;;12.50;99.90;;;;;;5025018;28;20100;-84
2022/10/14 09:20:43;;;;;;;62.53;18.98;;;12.50;99.90;;;;;;5047769;28;20037;-84
2022/10/14 09:23:21;;;;;;;50.53;16.67;;;12.60;99.90;;;;;;5049817;28;20048;-84
2022/10/14 09:25:58;;;;;;;49.95;16.67;;;12.60;99.90;;;;;;5041019;28;20044;-82
2022/10/14 09:28:35;;;;;;;47.67;15.52;;;12.60;99.90;;;;;;5047390;28;20051;-83
2022/10/14 09:31:01;;;;;;;47.25;15.38;;;12.60;99.90;;;;;;5045586;28;20078;-84
2022/10/14 09:33:28;;;;;;;60.72;18.38;;;12.60;99.90;;;;;;5053414;28;20124;-85
2022/10/14 09:35:54;;;;;;;55.78;16.05;;;12.60;99.90;;;;;;5053204;28;20072;-84
2022/10/14 09:38:20;;;;;;;47.90;15.02;;;12.60;99.90;;;;;;5005026;28;20045;-83
2022/10/14 09:40:54;;;;;;;48.80;15.18;;;12.70;99.90;;;;;;5031948;28;20045;-83
2022/10/14 09:43:23;;;;;;;237.30;137.25;;;12.60;99.90;;;;;;5042335;28;20114;-83
2022/10/14 09:45:59;;;;;;;68.10;17.02;;;12.70;99.90;;;;;;5042952;28;20053;-84
2022/10/14 09:48:41;;;;;;;48.78;15.70;;;12.70;99.90;;;;;;5052559;28;20072;-84
2022/10/14 09:51:10;;;;;;;53.57;15.43;;;12.70;99.90;;;;;;5051873;28;20052;-84
2022/10/14 09:53:46;;;;;;;52.88;15.00;;;12.70;99.90;;;;;;5038574;28;20033;-83
2022/10/14 09:56:12;;;;;;;52.53;14.25;;;12.70;99.90;;;;;;5043428;28;20045;-83
2022/10/14 09:58:43;;;;;;;41.30;11.77;;;12.70;99.90;;;;;;5021152;28;20130;-83
2022/10/14 10:01:16;;;;;;;49.58;17.08;;;12.70;99.90;;;;;;5053515;28;20056;-84
2022/10/14 10:03:42;;;;;;;41.95;13.07;;;12.80;99.90;;;;;;5026457;28;20083;-84
2022/10/14 10:06:10;;;;;;;60.85;14.40;;;12.80;99.90;;;;;;5017776;28;20053;-83
2022/10/14 10:08:58;;;;;;;35.55;13.02;;;12.80;99.90;;;;;;5034523;28;20045;-83
2022/10/14 10:11:37;;;;;;;38.22;12.40;;;12.80;99.90;;;;;;5048837;28;20040;-84
2022/10/14 10:14:31;;;;;;;45.38;13.13;;;12.80;99.90;;;;;;5053924;28;20076;-83
2022/10/14 10:17:06;;;;;;;58.50;25.52;;;12.90;99.90;;;;;;5043186;28;20046;-85
2022/10/14 10:20:06;;;;;;;37.17;12.73;;;12.90;99.90;;;;;;5030941;28;20052;-85
2022/10/14 10:22:37;;;;;;;32.75;11.10;;;12.90;99.90;;;;;;5049357;28;20428;-84
2022/10/14 10:25:03;;;;;;;35.17;11.13;;;12.90;99.90;;;;;;5036989;28;20056;-83
2022/10/14 10:27:38;;;;;;;40.83;11.55;;;12.90;99.90;;;;;;5032454;28;20375;-83
2022/10/14 10:30:16;;;;;;;42.83;12.93;;;12.90;99.90;;;;;;5041462;28;20045;-84
2022/10/14 10:33:15;;;;;;;38.95;12.68;;;12.90;99.90;;;;;;5033286;28;20049;-83
2022/10/14 10:36:25;;;;;;;39.17;11.77;;;12.90;99.90;;;;;;5025730;28;20591;-83
2022/10/14 10:39:15;;;;;;;46.70;15.23;;;12.90;99.90;;;;;;5040481;28;20049;-84
2022/10/14 10:42:16;;;;;;;48.75;15.20;;;13.00;99.90;;;;;;5050564;28;20161;-85
2022/10/14 10:45:10;;;;;;;63.28;16.98;;;13.00;99.90;;;;;;5033919;28;20037;-85
2022/10/14 10:47:35;;;;;;;61.88;17.25;;;13.00;99.90;;;;;;5047927;28;20049;-84
2022/10/14 10:50:22;;;;;;;72.57;19.60;;;13.00;99.90;;;;;;5032930;28;20049;-86
2022/10/14 10:53:09;;;;;;;64.40;19.73;;;13.10;99.90;;;;;;5051671;28;20065;-86
2022/10/14 10:55:53;;;;;;;65.38;20.67;;;13.20;99.90;;;;;;5041959;28;20053;-87
2022/10/14 10:58:39;;;;;;;88.32;20.50;;;13.20;99.90;;;;;;5028195;28;20041;-84
2022/10/14 11:01:35;;;;;;;75.03;19.13;;;13.20;99.90;;;;;;5051166;28;20463;-83
2022/10/14 11:04:52;;;;;;;58.42;18.15;;;13.30;99.90;;;;;;5032104;28;20062;-83
2022/10/14 11:13:16;;;;;;;58.40;19.45;;;13.60;99.90;;;;;;5057238;28;20049;-83
2022/10/14 11:16:02;;;;;;;67.43;20.20;;;13.70;99.90;;;;;;5054607;28;20044;-83
2022/10/14 11:18:48;;;;;;;84.18;21.67;;;13.70;99.90;;;;;;5059998;28;20098;-84
2022/10/14 11:21:28;;;;;;;65.22;19.60;;;13.70;99.90;;;;;;5058747;28;20069;-83
2022/10/14 11:24:22;;;;;;;63.63;19.27;;;13.80;99.90;;;;;;5025912;28;20049;-83
2022/10/14 11:26:57;;;;;;;58.65;20.17;;;13.80;99.90;;;;;;5040060;28;20050;-84
2022/10/14 11:30:01;;;;;;;63.75;22.33;;;13.80;99.90;;;;;;5024718;28;20045;-83
2022/10/14 11:32:54;;;;;;;57.97;20.98;;;13.80;99.90;;;;;;5040221;28;20059;-83
2022/10/14 11:35:40;;;;;;;58.33;19.63;;;13.80;99.90;;;;;;5040271;28;20063;-83
2022/10/14 11:38:14;;;;;;;59.58;20.27;;;13.80;99.90;;;;;;5028333;28;20055;-84
2022/10/14 11:41:11;;;;;;;79.13;22.10;;;13.80;99.90;;;;;;5034208;28;20041;-83
2022/10/14 11:43:54;;;;;;;54.40;19.00;;;13.80;99.90;;;;;;5036799;28;20103;-82
2022/10/14 11:46:23;;;;;;;97.95;22.92;;;13.90;99.90;;;;;;5059191;28;20071;-83
2022/10/14 11:48:51;;;;;;;55.80;19.67;;;13.90;99.90;;;;;;5060337;28;20052;-84
2022/10/14 11:51:26;;;;;;;53.50;17.98;;;13.90;99.90;;;;;;5059730;28;20049;-83
2022/10/14 11:54:10;;;;;;;44.50;17.27;;;13.90;99.90;;;;;;5043350;28;20056;-83
2022/10/14 11:56:45;;;;;;;42.03;17.33;;;14.00;99.90;;;;;;5061369;28;20045;-83
2022/10/14 11:59:35;;;;;;;39.33;16.67;;;14.00;99.90;;;;;;5059478;28;20052;-83
2022/10/14 12:02:27;;;;;;;34.65;14.38;;;14.10;99.90;;;;;;5059795;28;20423;-83
2022/10/14 12:05:01;;;;;;;30.40;12.88;;;14.10;99.90;;;;;;5042858;28;20527;-83
2022/10/14 12:07:42;;;;;;;29.38;11.93;;;14.20;99.90;;;;;;5061007;28;20064;-83
2022/10/14 12:10:31;;;;;;;23.95;11.40;;;14.30;99.90;;;;;;5060072;28;20053;-83
2022/10/14 12:12:59;;;;;;;22.20;11.45;;;14.30;99.90;;;;;;5059110;28;20095;-83
2022/10/14 12:15:26;;;;;;;25.75;12.10;;;14.40;99.90;;;;;;5059469;28;20045;-82
2022/10/14 12:18:00;;;;;;;22.10;10.00;;;14.50;99.90;;;;;;5059624;28;20060;-83
2022/10/14 12:20:37;;;;;;;20.27;10.48;;;14.60;99.90;;;;;;5059189;28;20041;-83
2022/10/14 12:23:09;;;;;;;22.42;10.55;;;14.60;99.90;;;;;;5043293;28;20056;-83
2022/10/14 12:26:12;;;;;;;15.87;9.30;;;14.60;99.90;;;;;;5059002;28;20060;-83
2022/10/14 12:28:39;;;;;;;13.68;7.90;;;14.70;99.90;;;;;;5057626;28;20053;-83
2022/10/14 12:31:26;;;;;;;16.08;9.68;;;14.80;99.90;;;;;;5059626;28;20045;-84
2022/10/14 12:34:12;;;;;;;15.38;8.07;;;14.80;99.90;;;;;;5058934;28;20052;-83
2022/10/14 12:36:40;;;;;;;12.98;7.53;;;14.80;99.90;;;;;;5059079;28;20092;-83
2022/10/14 12:39:17;;;;;;;14.48;7.65;;;14.80;99.90;;;;;;5059297;28;20081;-83
2022/10/14 12:41:58;;;;;;;13.95;7.18;;;14.80;99.90;;;;;;5058942;28;20045;-84
2022/10/14 12:44:30;;;;;;;11.70;7.38;;;14.80;99.90;;;;;;5059201;28;20049;-83
2022/10/14 12:46:56;;;;;;;13.15;7.85;;;14.90;99.90;;;;;;5058599;28;20445;-83
2022/10/14 12:49:32;;;;;;;13.63;7.70;;;14.80;99.90;;;;;;5058904;28;20128;-83
2022/10/14 12:52:01;;;;;;;11.38;7.40;;;14.90;99.90;;;;;;5058973;28;20072;-83
2022/10/14 12:54:29;;;;;;;12.73;7.22;;;14.90;99.90;;;;;;5041915;28;20139;-84